sensor_id;sensor_type;location;lat;lon;timestamp;pressure;altitude;pressure_sealevel;temperature;humidity
20394;BME280;10356;50.544;9.642;2023-02-19T00:02:02;98513.59;;;8.37;100.00
20394;BME280;10356;50.544;9.642;2023-02-19T00:04:29;98502.53;;;8.48;100.00
20394;BME280;10356;50.544;9.642;2023-02-19T00:06:55;98496.06;;;8.41;100.00
20394;BME280;10356;50.544;9.642;2023-02-19T00:09:24;98495.63;;;8.34;100.00
20394;BME280;10356;50.544;9.642;2023-02-19T00:11:51;98497.06;;;8.26;100.00
20394;BME280;10356;50.544;9.642;2023-02-19T00:14:19;98494.25;;;8.29;100.00
20394;BME280;10356;50.544;9.642;2023-02-19T00:16:46;98495.00;;;8.31;100.00
20394;BME280;10356;50.544;9.642;2023-02-19T00:19:14;98486.69;;;8.38;100.00
20394;BME280;10356;50.544;9.642;2023-02-19T00:21:41;98488.59;;;8.49;100.00
20394;BME280;10356;50.544;9.642;2023-02-19T00:24:10;98481.31;;;8.41;100.00
20394;BME280;10356;50.544;9.642;2023-02-19T00:26:38;98470.09;;;8.41;100.00
20394;BME280;10356;50.544;9.642;2023-02-19T00:29:05;98473.00;;;8.36;100.00
20394;BME280;10356;50.544;9.642;2023-02-19T00:31:34;98466.78;;;8.39;100.00
20394;BME280;10356;50.544;9.642;2023-02-19T00:34:02;98451.41;;;8.36;100.00
20394;BME280;10356;50.544;9.642;2023-02-19T00:36:29;98443.28;;;8.40;100.00
20394;BME280;10356;50.544;9.642;2023-02-19T00:38:56;98438.94;;;8.41;100.00
20394;BME280;10356;50.544;9.642;2023-02-19T00:41:23;98445.09;;;8.40;100.00
20394;BME280;10356;50.544;9.642;2023-02-19T00:43:52;98446.97;;;8.24;100.00
20394;BME280;10356;50.544;9.642;2023-02-19T00:46:21;98452.00;;;8.27;100.00
20394;BME280;10356;50.544;9.642;2023-02-19T00:48:48;98451.25;;;8.25;100.00
20394;BME280;10356;50.544;9.642;2023-02-19T00:51:15;98461.97;;;8.33;100.00
20394;BME280;10356;50.544;9.642;2023-02-19T00:53:42;98461.78;;;8.36;100.00
20394;BME280;10356;50.544;9.642;2023-02-19T00:56:09;98448.50;;;8.40;100.00
20394;BME280;10356;50.544;9.642;2023-02-19T00:58:36;98446.22;;;8.36;100.00
20394;BME280;10356;50.544;9.642;2023-02-19T01:01:05;98426.38;;;8.35;100.00
20394;BME280;10356;50.544;9.642;2023-02-19T01:03:32;98438.09;;;8.28;100.00
20394;BME280;10356;50.544;9.642;2023-02-19T01:05:59;98442.59;;;8.24;100.00
20394;BME280;10356;50.544;9.642;2023-02-19T01:08:26;98446.16;;;8.23;100.00
20394;BME280;10356;50.544;9.642;2023-02-19T01:10:52;98426.03;;;8.27;100.00
20394;BME280;10356;50.544;9.642;2023-02-19T01:13:19;98418.34;;;8.25;100.00
20394;BME280;10356;50.544;9.642;2023-02-19T01:15:45;98417.34;;;8.28;100.00
20394;BME280;10356;50.544;9.642;2023-02-19T01:18:13;98424.06;;;8.30;100.00
20394;BME280;10356;50.544;9.642;2023-02-19T01:20:41;98423.03;;;8.33;100.00
20394;BME280;10356;50.544;9.642;2023-02-19T01:23:09;98427.72;;;8.28;100.00
20394;BME280;10356;50.544;9.642;2023-02-19T01:25:36;98418.78;;;8.32;100.00
20394;BME280;10356;50.544;9.642;2023-02-19T01:28:03;98420.66;;;8.30;100.00
20394;BME280;10356;50.544;9.642;2023-02-19T01:30:30;98409.63;;;8.26;100.00
20394;BME280;10356;50.544;9.642;2023-02-19T01:32:58;98398.44;;;8.26;100.00
20394;BME280;10356;50.544;9.642;2023-02-19T01:35:26;98402.31;;;8.19;100.00
20394;BME280;10356;50.544;9.642;2023-02-19T01:37:53;98404.72;;;8.22;100.00
20394;BME280;10356;50.544;9.642;2023-02-19T01:40:19;98402.13;;;8.22;100.00
20394;BME280;10356;50.544;9.642;2023-02-19T01:42:46;98401.75;;;8.28;100.00
20394;BME280;10356;50.544;9.642;2023-02-19T01:45:21;98396.16;;;8.34;100.00
20394;BME280;10356;50.544;9.642;2023-02-19T01:47:52;98399.06;;;8.29;100.00
20394;BME280;10356;50.544;9.642;2023-02-19T01:50:20;98398.44;;;8.26;100.00
20394;BME280;10356;50.544;9.642;2023-02-19T01:52:47;98399.06;;;8.29;100.00
20394;BME280;10356;50.544;9.642;2023-02-19T01:55:14;98402.38;;;8.31;100.00
20394;BME280;10356;50.544;9.642;2023-02-19T01:57:45;98405.09;;;8.30;100.00
20394;BME280;10356;50.544;9.642;2023-02-19T02:00:15;98402.28;;;8.33;100.00
20394;BME280;10356;50.544;9.642;2023-02-19T02:02:45;98395.22;;;8.35;100.00
20394;BME280;10356;50.544;9.642;2023-02-19T02:05:18;98382.66;;;8.41;100.00
20394;BME280;10356;50.544;9.642;2023-02-19T02:07:47;98373.94;;;8.42;100.00
20394;BME280;10356;50.544;9.642;2023-02-19T02:10:32;98371.66;;;8.38;100.00
20394;BME280;10356;50.544;9.642;2023-02-19T02:12:59;98373.94;;;8.30;100.00
20394;BME280;10356;50.544;9.642;2023-02-19T02:15:30;98370.19;;;8.34;100.00
20394;BME280;10356;50.544;9.642;2023-02-19T02:18:04;98360.00;;;8.31;100.00
20394;BME280;10356;50.544;9.642;2023-02-19T02:20:47;98356.69;;;8.29;100.00
20394;BME280;10356;50.544;9.642;2023-02-19T02:23:28;98363.56;;;8.30;100.00
20394;BME280;10356;50.544;9.642;2023-02-19T02:26:09;98358.97;;;8.33;100.00
20394;BME280;10356;50.544;9.642;2023-02-19T02:29:00;98371.66;;;8.38;100.00
20394;BME280;10356;50.544;9.642;2023-02-19T02:31:34;98356.59;;;8.43;100.00
20394;BME280;10356;50.544;9.642;2023-02-19T02:34:08;98339.44;;;8.40;100.00
20394;BME280;10356;50.544;9.642;2023-02-19T02:36:39;98340.81;;;8.46;100.00
20394;BME280;10356;50.544;9.642;2023-02-19T02:39:10;98335.28;;;8.51;100.00
20394;BME280;10356;50.544;9.642;2023-02-19T02:41:41;98329.72;;;8.44;100.00
20394;BME280;10356;50.544;9.642;2023-02-19T02:44:08;98324.72;;;8.41;100.00
20394;BME280;10356;50.544;9.642;2023-02-19T02:46:40;98331.78;;;8.39;100.00
20394;BME280;10356;50.544;9.642;2023-02-19T02:49:11;98332.00;;;8.36;100.00
20394;BME280;10356;50.544;9.642;2023-02-19T02:51:42;98343.84;;;8.40;100.00
20394;BME280;10356;50.544;9.642;2023-02-19T02:54:14;98343.41;;;8.46;100.00
20394;BME280;10356;50.544;9.642;2023-02-19T02:56:59;98339.69;;;8.50;100.00
20394;BME280;10356;50.544;9.642;2023-02-19T02:59:30;98346.75;;;8.48;100.00
20394;BME280;10356;50.544;9.642;2023-02-19T03:01:59;98351.94;;;8.48;100.00
20394;BME280;10356;50.544;9.642;2023-02-19T03:04:40;98343.59;;;8.43;100.00
20394;BME280;10356;50.544;9.642;2023-02-19T03:07:25;98342.34;;;8.48;100.00
20394;BME280;10356;50.544;9.642;2023-02-19T03:09:55;98343.00;;;8.52;100.00
20394;BME280;10356;50.544;9.642;2023-02-19T03:12:24;98343.41;;;8.46;100.00
20394;BME280;10356;50.544;9.642;2023-02-19T03:15:13;98344.47;;;8.56;100.00
20394;BME280;10356;50.544;9.642;2023-02-19T03:18:02;98339.25;;;8.56;100.00
20394;BME280;10356;50.544;9.642;2023-02-19T03:20:53;98335.94;;;8.54;100.00
20394;BME280;10356;50.544;9.642;2023-02-19T03:23:22;98336.44;;;8.59;100.00
20394;BME280;10356;50.544;9.642;2023-02-19T03:26:11;98333.84;;;8.59;100.00
20394;BME280;10356;50.544;9.642;2023-02-19T03:28:39;98331.38;;;8.70;100.00
20394;BME280;10356;50.544;9.642;2023-02-19T03:31:27;98335.00;;;8.68;100.00
20394;BME280;10356;50.544;9.642;2023-02-19T03:34:00;98328.03;;;8.68;100.00
20394;BME280;10356;50.544;9.642;2023-02-19T03:36:32;98334.88;;;8.69;100.00
20394;BME280;10356;50.544;9.642;2023-02-19T03:39:02;98335.91;;;8.79;100.00
20394;BME280;10356;50.544;9.642;2023-02-19T03:41:31;98336.56;;;8.70;100.00
20394;BME280;10356;50.544;9.642;2023-02-19T03:44:06;98333.44;;;8.78;100.00
20394;BME280;10356;50.544;9.642;2023-02-19T03:46:42;98336.34;;;8.73;100.00
20394;BME280;10356;50.544;9.642;2023-02-19T03:49:15;98339.88;;;8.72;100.00
20394;BME280;10356;50.544;9.642;2023-02-19T03:51:50;98349.75;;;8.80;100.00
20394;BME280;10356;50.544;9.642;2023-02-19T03:54:23;98344.13;;;8.73;100.00
20394;BME280;10356;50.544;9.642;2023-02-19T03:56:57;98345.88;;;8.73;100.00
20394;BME280;10356;50.544;9.642;2023-02-19T03:59:31;98343.81;;;8.78;100.00
20394;BME280;10356;50.544;9.642;2023-02-19T04:02:01;98341.34;;;8.76;100.00
20394;BME280;10356;50.544;9.642;2023-02-19T04:04:32;98333.19;;;8.81;100.00
20394;BME280;10356;50.544;9.642;2023-02-19T04:07:01;98332.59;;;8.77;100.00
20394;BME280;10356;50.544;9.642;2023-02-19T04:09:31;98343.81;;;8.78;100.00
20394;BME280;10356;50.544;9.642;2023-02-19T04:12:00;98348.19;;;8.77;100.00
20394;BME280;10356;50.544;9.642;2023-02-19T04:14:30;98353.59;;;8.74;100.00
20394;BME280;10356;50.544;9.642;2023-02-19T04:16:59;98354.09;;;8.79;100.00
20394;BME280;10356;50.544;9.642;2023-02-19T04:19:28;98362.72;;;8.80;100.00
20394;BME280;10356;50.544;9.642;2023-02-19T04:21:58;98355.66;;;8.82;100.00
20394;BME280;10356;50.544;9.642;2023-02-19T04:24:27;98348.19;;;8.77;100.00
20394;BME280;10356;50.544;9.642;2023-02-19T04:26:55;98346.72;;;8.86;100.00
20394;BME280;10356;50.544;9.642;2023-02-19T04:29:21;98348.41;;;8.74;100.00
20394;BME280;10356;50.544;9.642;2023-02-19T04:31:48;98357.41;;;8.81;100.00
20394;BME280;10356;50.544;9.642;2023-02-19T04:34:15;98347.63;;;8.85;100.00
20394;BME280;10356;50.544;9.642;2023-02-19T04:36:41;98358.75;;;8.87;100.00
20394;BME280;10356;50.544;9.642;2023-02-19T04:39:09;98348.72;;;8.82;100.00
20394;BME280;10356;50.544;9.642;2023-02-19T04:41:35;98361.88;;;8.79;100.00
20394;BME280;10356;50.544;9.642;2023-02-19T04:44:02;98356.16;;;8.87;100.00
20394;BME280;10356;50.544;9.642;2023-02-19T04:46:28;98349.44;;;8.84;100.00
20394;BME280;10356;50.544;9.642;2023-02-19T04:48:55;98348.47;;;8.85;100.00
20394;BME280;10356;50.544;9.642;2023-02-19T04:51:22;98352.03;;;8.84;100.00
20394;BME280;10356;50.544;9.642;2023-02-19T04:53:48;98352.84;;;8.85;100.00
20394;BME280;10356;50.544;9.642;2023-02-19T04:56:16;98354.31;;;8.76;100.00
20394;BME280;10356;50.544;9.642;2023-02-19T04:58:43;98360.97;;;8.80;100.00
20394;BME280;10356;50.544;9.642;2023-02-19T05:01:10;98351.00;;;8.74;100.00
20394;BME280;10356;50.544;9.642;2023-02-19T05:03:37;98360.84;;;8.69;100.00
20394;BME280;10356;50.544;9.642;2023-02-19T05:06:06;98364.06;;;8.73;100.00
20394;BME280;10356;50.544;9.642;2023-02-19T05:08:33;98362.53;;;8.70;100.00
20394;BME280;10356;50.544;9.642;2023-02-19T05:11:01;98377.06;;;8.73;100.00
20394;BME280;10356;50.544;9.642;2023-02-19T05:13:30;98369.59;;;8.68;100.00
20394;BME280;10356;50.544;9.642;2023-02-19T05:15:58;98379.34;;;8.65;100.00
20394;BME280;10356;50.544;9.642;2023-02-19T05:18:25;98380.41;;;8.62;100.00
20394;BME280;10356;50.544;9.642;2023-02-19T05:20:52;98388.09;;;8.64;100.00
20394;BME280;10356;50.544;9.642;2023-02-19T05:23:19;98387.97;;;8.65;100.00
20394;BME280;10356;50.544;9.642;2023-02-19T05:25:46;98389.13;;;8.74;100.00
20394;BME280;10356;50.544;9.642;2023-02-19T05:28:13;98398.78;;;8.72;100.00
20394;BME280;10356;50.544;9.642;2023-02-19T05:30:43;98399.94;;;8.68;100.00
20394;BME280;10356;50.544;9.642;2023-02-19T05:33:10;98400.97;;;8.65;100.00
20394;BME280;10356;50.544;9.642;2023-02-19T05:35:40;98404.69;;;8.61;100.00
20394;BME280;10356;50.544;9.642;2023-02-19T05:38:06;98417.16;;;8.56;100.00
20394;BME280;10356;50.544;9.642;2023-02-19T05:40:33;98422.78;;;8.50;100.00
20394;BME280;10356;50.544;9.642;2023-02-19T05:43:00;98410.19;;;8.44;100.00
20394;BME280;10356;50.544;9.642;2023-02-19T05:45:26;98417.03;;;8.45;100.00
20394;BME280;10356;50.544;9.642;2023-02-19T05:47:54;98417.34;;;8.40;100.00
20394;BME280;10356;50.544;9.642;2023-02-19T05:50:21;98417.38;;;8.53;100.00
20394;BME280;10356;50.544;9.642;2023-02-19T05:52:47;98416.44;;;8.54;100.00
20394;BME280;10356;50.544;9.642;2023-02-19T05:55:14;98414.03;;;8.51;100.00
20394;BME280;10356;50.544;9.642;2023-02-19T05:57:41;98421.50;;;8.43;100.00
20394;BME280;10356;50.544;9.642;2023-02-19T06:00:09;98418.78;;;8.44;100.00
20394;BME280;10356;50.544;9.642;2023-02-19T06:02:36;98427.66;;;8.42;100.00
20394;BME280;10356;50.544;9.642;2023-02-19T06:05:04;98429.41;;;8.41;100.00
20394;BME280;10356;50.544;9.642;2023-02-19T06:07:32;98432.50;;;8.34;100.00
20394;BME280;10356;50.544;9.642;2023-02-19T06:09:58;98439.56;;;8.32;100.00
20394;BME280;10356;50.544;9.642;2023-02-19T06:12:25;98438.50;;;8.34;100.00
20394;BME280;10356;50.544;9.642;2023-02-19T06:14:51;98444.53;;;8.35;100.00
20394;BME280;10356;50.544;9.642;2023-02-19T06:17:17;98445.56;;;8.32;100.00
20394;BME280;10356;50.544;9.642;2023-02-19T06:19:44;98445.78;;;8.29;100.00
20394;BME280;10356;50.544;9.642;2023-02-19T06:22:13;98452.84;;;8.27;100.00
20394;BME280;10356;50.544;9.642;2023-02-19T06:24:39;98454.53;;;8.41;100.00
20394;BME280;10356;50.544;9.642;2023-02-19T06:27:06;98456.38;;;8.39;100.00
20394;BME280;10356;50.544;9.642;2023-02-19T06:29:33;98454.75;;;8.38;100.00
20394;BME280;10356;50.544;9.642;2023-02-19T06:32:02;98455.66;;;8.37;100.00
20394;BME280;10356;50.544;9.642;2023-02-19T06:34:29;98455.59;;;8.51;100.00
20394;BME280;10356;50.544;9.642;2023-02-19T06:36:56;98461.41;;;8.55;100.00
20394;BME280;10356;50.544;9.642;2023-02-19T06:39:24;98473.47;;;8.56;100.00
20394;BME280;10356;50.544;9.642;2023-02-19T06:41:54;98470.34;;;8.63;100.00
20394;BME280;10356;50.544;9.642;2023-02-19T06:44:20;98473.69;;;8.65;100.00
20394;BME280;10356;50.544;9.642;2023-02-19T06:46:47;98484.28;;;8.62;100.00
20394;BME280;10356;50.544;9.642;2023-02-19T06:49:13;98488.34;;;8.66;100.00
20394;BME280;10356;50.544;9.642;2023-02-19T06:51:40;98494.56;;;8.64;100.00
20394;BME280;10356;50.544;9.642;2023-02-19T06:54:07;98498.81;;;8.52;100.00
20394;BME280;10356;50.544;9.642;2023-02-19T06:56:36;98499.88;;;8.62;100.00
20394;BME280;10356;50.544;9.642;2023-02-19T06:59:06;98499.66;;;8.65;100.00
20394;BME280;10356;50.544;9.642;2023-02-19T07:01:34;98504.66;;;8.68;100.00
20394;BME280;10356;50.544;9.642;2023-02-19T07:04:01;98504.25;;;8.74;100.00
20394;BME280;10356;50.544;9.642;2023-02-19T07:06:28;98504.25;;;8.74;100.00
20394;BME280;10356;50.544;9.642;2023-02-19T07:08:56;98511.09;;;8.75;100.00
20394;BME280;10356;50.544;9.642;2023-02-19T07:11:23;98514.66;;;8.74;100.00
20394;BME280;10356;50.544;9.642;2023-02-19T07:13:54;98511.31;;;8.72;100.00
20394;BME280;10356;50.544;9.642;2023-02-19T07:16:21;98516.72;;;8.69;100.00
20394;BME280;10356;50.544;9.642;2023-02-19T07:18:48;98516.72;;;8.69;100.00
20394;BME280;10356;50.544;9.642;2023-02-19T07:21:15;98518.56;;;8.67;100.00
20394;BME280;10356;50.544;9.642;2023-02-19T07:23:43;98521.72;;;8.72;100.00
20394;BME280;10356;50.544;9.642;2023-02-19T07:26:11;98526.50;;;8.78;100.00
20394;BME280;10356;50.544;9.642;2023-02-19T07:28:39;98528.38;;;8.76;100.00
20394;BME280;10356;50.544;9.642;2023-02-19T07:31:07;98526.50;;;8.78;100.00
20394;BME280;10356;50.544;9.642;2023-02-19T07:33:33;98532.13;;;8.85;100.00
20394;BME280;10356;50.544;9.642;2023-02-19T07:36:00;98539.72;;;8.88;100.00
20394;BME280;10356;50.544;9.642;2023-02-19T07:38:26;98541.69;;;8.97;100.00
20394;BME280;10356;50.544;9.642;2023-02-19T07:40:54;98548.47;;;8.99;100.00
20394;BME280;10356;50.544;9.642;2023-02-19T07:43:21;98554.41;;;9.01;100.00
20394;BME280;10356;50.544;9.642;2023-02-19T07:45:48;98552.13;;;9.09;100.00
20394;BME280;10356;50.544;9.642;2023-02-19T07:48:17;98562.72;;;9.06;100.00
20394;BME280;10356;50.544;9.642;2023-02-19T07:50:50;98566.25;;;9.05;100.00
20394;BME280;10356;50.544;9.642;2023-02-19T07:53:17;98566.47;;;9.02;100.00
20394;BME280;10356;50.544;9.642;2023-02-19T07:55:43;98569.59;;;9.07;100.00
20394;BME280;10356;50.544;9.642;2023-02-19T07:58:09;98581.44;;;9.11;100.00
20394;BME280;10356;50.544;9.642;2023-02-19T08:00:36;98570.22;;;9.11;100.00
20394;BME280;10356;50.544;9.642;2023-02-19T08:03:02;98570.84;;;9.14;100.00
20394;BME280;10356;50.544;9.642;2023-02-19T08:05:31;98580.13;;;9.18;100.00
20394;BME280;10356;50.544;9.642;2023-02-19T08:07:58;98574.81;;;9.20;100.00
20394;BME280;10356;50.544;9.642;2023-02-19T08:10:25;98577.41;;;9.20;100.00
20394;BME280;10356;50.544;9.642;2023-02-19T08:13:10;98596.03;;;9.26;100.00
20394;BME280;10356;50.544;9.642;2023-02-19T08:15:48;98592.28;;;9.18;100.00
20394;BME280;10356;50.544;9.642;2023-02-19T08:18:16;98585.81;;;9.23;100.00
20394;BME280;10356;50.544;9.642;2023-02-19T08:20:44;98592.50;;;9.27;100.00
20394;BME280;10356;50.544;9.642;2023-02-19T08:23:11;98601.84;;;9.30;100.00
20394;BME280;10356;50.544;9.642;2023-02-19T08:25:39;98617.34;;;9.31;100.00
20394;BME280;10356;50.544;9.642;2023-02-19T08:28:07;98620.28;;;9.27;100.00
20394;BME280;10356;50.544;9.642;2023-02-19T08:30:35;98619.94;;;9.31;100.00
20394;BME280;10356;50.544;9.642;2023-02-19T08:33:03;98637.41;;;9.29;100.00
20394;BME280;10356;50.544;9.642;2023-02-19T08:35:30;98636.69;;;9.27;100.00
20394;BME280;10356;50.544;9.642;2023-02-19T08:37:58;98648.03;;;9.26;100.00
20394;BME280;10356;50.544;9.642;2023-02-19T08:40:25;98659.97;;;9.16;99.79
20394;BME280;10356;50.544;9.642;2023-02-19T08:42:52;98662.19;;;9.22;99.54
20394;BME280;10356;50.544;9.642;2023-02-19T08:45:18;98652.91;;;9.18;99.80
20394;BME280;10356;50.544;9.642;2023-02-19T08:47:45;98641.88;;;9.27;98.95
20394;BME280;10356;50.544;9.642;2023-02-19T08:50:12;98641.69;;;9.30;99.20
20394;BME280;10356;50.544;9.642;2023-02-19T08:52:38;98656.91;;;9.37;99.08
20394;BME280;10356;50.544;9.642;2023-02-19T08:55:06;98658.16;;;9.44;98.18
20394;BME280;10356;50.544;9.642;2023-02-19T08:57:34;98653.38;;;9.50;97.46
20394;BME280;10356;50.544;9.642;2023-02-19T09:00:02;98652.84;;;9.58;97.77
20394;BME280;10356;50.544;9.642;2023-02-19T09:02:29;98659.75;;;9.71;97.10
20394;BME280;10356;50.544;9.642;2023-02-19T09:04:56;98648.69;;;9.68;96.38
20394;BME280;10356;50.544;9.642;2023-02-19T09:07:22;98651.00;;;9.72;96.98
20394;BME280;10356;50.544;9.642;2023-02-19T09:09:49;98653.31;;;9.89;95.36
20394;BME280;10356;50.544;9.642;2023-02-19T09:12:17;98648.06;;;10.02;95.34
20394;BME280;10356;50.544;9.642;2023-02-19T09:14:43;98659.22;;;10.04;94.82
20394;BME280;10356;50.544;9.642;2023-02-19T09:17:11;98660.34;;;10.00;94.81
20394;BME280;10356;50.544;9.642;2023-02-19T09:19:38;98654.97;;;10.03;93.62
20394;BME280;10356;50.544;9.642;2023-02-19T09:22:04;98665.78;;;9.97;93.82
20394;BME280;10356;50.544;9.642;2023-02-19T09:24:31;98668.28;;;9.98;94.20
20394;BME280;10356;50.544;9.642;2023-02-19T09:26:58;98661.00;;;9.91;94.83
20394;BME280;10356;50.544;9.642;2023-02-19T09:29:27;98671.19;;;9.94;94.38
20394;BME280;10356;50.544;9.642;2023-02-19T09:31:57;98677.47;;;9.91;95.70
20394;BME280;10356;50.544;9.642;2023-02-19T09:34:24;98680.38;;;9.87;96.14
20394;BME280;10356;50.544;9.642;2023-02-19T09:36:51;98681.41;;;9.84;96.08
20394;BME280;10356;50.544;9.642;2023-02-19T09:39:18;98679.13;;;9.92;96.18
20394;BME280;10356;50.544;9.642;2023-02-19T09:41:46;98676.41;;;9.94;94.89
20394;BME280;10356;50.544;9.642;2023-02-19T09:44:20;98674.97;;;10.15;93.90
20394;BME280;10356;50.544;9.642;2023-02-19T09:46:50;98674.97;;;10.28;93.52
20394;BME280;10356;50.544;9.642;2023-02-19T09:49:20;98676.19;;;10.35;93.13
20394;BME280;10356;50.544;9.642;2023-02-19T09:51:51;98691.00;;;10.34;91.81
20394;BME280;10356;50.544;9.642;2023-02-19T09:54:21;98683.81;;;10.38;91.59
20394;BME280;10356;50.544;9.642;2023-02-19T09:56:49;98691.50;;;10.39;90.34
20394;BME280;10356;50.544;9.642;2023-02-19T09:59:19;98689.72;;;10.52;90.56
20394;BME280;10356;50.544;9.642;2023-02-19T10:01:51;98682.84;;;10.51;90.27
20394;BME280;10356;50.544;9.642;2023-02-19T10:04:20;98684.97;;;10.70;89.97
20394;BME280;10356;50.544;9.642;2023-02-19T10:06:48;98689.13;;;11.09;88.74
20394;BME280;10356;50.544;9.642;2023-02-19T10:09:20;98688.31;;;11.43;86.99
20394;BME280;10356;50.544;9.642;2023-02-19T10:11:48;98699.34;;;11.46;85.16
20394;BME280;10356;50.544;9.642;2023-02-19T10:14:17;98705.94;;;11.39;83.82
20394;BME280;10356;50.544;9.642;2023-02-19T10:16:47;98703.19;;;11.30;83.83
20394;BME280;10356;50.544;9.642;2023-02-19T10:19:16;98705.97;;;11.16;84.40
20394;BME280;10356;50.544;9.642;2023-02-19T10:21:43;98706.56;;;11.19;83.93
20394;BME280;10356;50.544;9.642;2023-02-19T10:24:13;98711.44;;;11.13;84.70
20394;BME280;10356;50.544;9.642;2023-02-19T10:26:41;98707.69;;;11.04;85.32
20394;BME280;10356;50.544;9.642;2023-02-19T10:29:09;98703.97;;;10.95;85.26
20394;BME280;10356;50.544;9.642;2023-02-19T10:31:35;98717.97;;;10.94;84.52
20394;BME280;10356;50.544;9.642;2023-02-19T10:34:02;98726.50;;;10.96;84.67
20394;BME280;10356;50.544;9.642;2023-02-19T10:36:34;98722.31;;;11.07;84.85
20394;BME280;10356;50.544;9.642;2023-02-19T10:39:06;98723.50;;;11.14;85.71
20394;BME280;10356;50.544;9.642;2023-02-19T10:41:33;98727.44;;;11.19;85.86
20394;BME280;10356;50.544;9.642;2023-02-19T10:44:10;98736.84;;;11.22;84.89
20394;BME280;10356;50.544;9.642;2023-02-19T10:46:42;98752.19;;;11.14;83.61
20394;BME280;10356;50.544;9.642;2023-02-19T10:49:24;98759.09;;;11.15;83.67
20394;BME280;10356;50.544;9.642;2023-02-19T10:51:54;98758.69;;;11.08;83.40
20394;BME280;10356;50.544;9.642;2023-02-19T10:54:25;98764.22;;;11.04;84.04
20394;BME280;10356;50.544;9.642;2023-02-19T10:57:14;98757.84;;;11.08;83.47
20394;BME280;10356;50.544;9.642;2023-02-19T10:59:48;98764.84;;;11.07;83.60
20394;BME280;10356;50.544;9.642;2023-02-19T11:02:16;98765.69;;;11.08;82.65
20394;BME280;10356;50.544;9.642;2023-02-19T11:05:01;98773.19;;;11.12;82.39
20394;BME280;10356;50.544;9.642;2023-02-19T11:07:30;98785.06;;;11.16;82.26
20394;BME280;10356;50.544;9.642;2023-02-19T11:09:58;98799.66;;;11.19;81.94
20394;BME280;10356;50.544;9.642;2023-02-19T11:12:26;98791.44;;;11.12;81.68
20394;BME280;10356;50.544;9.642;2023-02-19T11:14:53;98791.94;;;11.17;81.76
20394;BME280;10356;50.544;9.642;2023-02-19T11:17:22;98790.56;;;11.24;81.14
20394;BME280;10356;50.544;9.642;2023-02-19T11:19:52;98788.78;;;11.25;82.41
20394;BME280;10356;50.544;9.642;2023-02-19T11:22:28;98782.91;;;11.34;81.58
20394;BME280;10356;50.544;9.642;2023-02-19T11:25:00;98802.41;;;11.41;82.06
20394;BME280;10356;50.544;9.642;2023-02-19T11:27:28;98805.63;;;11.44;80.67
20394;BME280;10356;50.544;9.642;2023-02-19T11:33:18;98822.34;;;11.65;79.29
20394;BME280;10356;50.544;9.642;2023-02-19T11:35:46;98826.59;;;11.79;80.02
20394;BME280;10356;50.544;9.642;2023-02-19T11:38:15;98810.94;;;11.90;79.53
20394;BME280;10356;50.544;9.642;2023-02-19T11:40:48;98804.09;;;12.00;79.66
20394;BME280;10356;50.544;9.642;2023-02-19T11:43:33;98805.53;;;12.04;77.06
20394;BME280;10356;50.544;9.642;2023-02-19T11:46:08;98802.72;;;12.18;75.62
20394;BME280;10356;50.544;9.642;2023-02-19T11:48:50;98806.59;;;12.47;73.82
20394;BME280;10356;50.544;9.642;2023-02-19T11:51:35;98798.53;;;12.61;74.27
20394;BME280;10356;50.544;9.642;2023-02-19T11:54:13;98801.97;;;12.40;74.00
20394;BME280;10356;50.544;9.642;2023-02-19T11:56:48;98806.53;;;12.14;75.55
20394;BME280;10356;50.544;9.642;2023-02-19T11:59:24;98795.47;;;12.11;75.07
20394;BME280;10356;50.544;9.642;2023-02-19T12:02:05;98790.63;;;12.17;75.06
20394;BME280;10356;50.544;9.642;2023-02-19T12:04:59;98790.94;;;12.02;76.00
20394;BME280;10356;50.544;9.642;2023-02-19T12:07:56;98798.53;;;11.94;76.40
20394;BME280;10356;50.544;9.642;2023-02-19T12:10:32;98802.13;;;11.80;77.17
20394;BME280;10356;50.544;9.642;2023-02-19T12:13:09;98815.97;;;11.93;77.60
20394;BME280;10356;50.544;9.642;2023-02-19T12:15:50;98811.53;;;11.82;76.42
20394;BME280;10356;50.544;9.642;2023-02-19T12:18:45;98816.94;;;11.68;76.43
20394;BME280;10356;50.544;9.642;2023-02-19T12:21:24;98826.00;;;11.63;78.04
20394;BME280;10356;50.544;9.642;2023-02-19T12:24:08;98814.34;;;11.56;78.09
20394;BME280;10356;50.544;9.642;2023-02-19T12:26:46;98822.88;;;11.58;77.30
20394;BME280;10356;50.544;9.642;2023-02-19T12:29:31;98830.44;;;11.50;77.04
20394;BME280;10356;50.544;9.642;2023-02-19T12:37:37;98825.88;;;11.41;76.21
20394;BME280;10356;50.544;9.642;2023-02-19T12:40:26;98814.09;;;11.35;76.53
20394;BME280;10356;50.544;9.642;2023-02-19T12:43:08;98820.81;;;11.27;76.13
20394;BME280;10356;50.544;9.642;2023-02-19T12:45:40;98810.72;;;11.22;76.53
20394;BME280;10356;50.544;9.642;2023-02-19T12:48:13;98810.09;;;11.19;76.33
20394;BME280;10356;50.544;9.642;2023-02-19T12:50:43;98805.31;;;11.13;76.62
20394;BME280;10356;50.544;9.642;2023-02-19T12:53:26;98809.69;;;11.12;77.37
20394;BME280;10356;50.544;9.642;2023-02-19T12:55:58;98807.81;;;11.14;76.52
20394;BME280;10356;50.544;9.642;2023-02-19T12:58:28;98805.31;;;11.13;76.94
20394;BME280;10356;50.544;9.642;2023-02-19T13:00:59;98799.66;;;11.19;76.34
20394;BME280;10356;50.544;9.642;2023-02-19T13:03:29;98810.81;;;11.21;76.60
20394;BME280;10356;50.544;9.642;2023-02-19T13:06:03;98797.97;;;11.18;76.25
20394;BME280;10356;50.544;9.642;2023-02-19T13:08:36;98808.72;;;11.26;76.35
20394;BME280;10356;50.544;9.642;2023-02-19T13:11:09;98822.19;;;11.20;76.61
20394;BME280;10356;50.544;9.642;2023-02-19T13:13:39;98820.72;;;11.16;76.40
20394;BME280;10356;50.544;9.642;2023-02-19T13:16:10;98818.06;;;11.05;75.38
20394;BME280;10356;50.544;9.642;2023-02-19T13:18:43;98814.09;;;10.99;75.94
20394;BME280;10356;50.544;9.642;2023-02-19T13:21:11;98824.63;;;10.97;76.53
20394;BME280;10356;50.544;9.642;2023-02-19T13:24:00;98821.81;;;11.01;76.33
20394;BME280;10356;50.544;9.642;2023-02-19T13:26:44;98822.03;;;10.97;76.61